createdAt,value
2023-05-17T00:01:50.207Z,82.30
2023-05-17T00:04:18.492Z,82.30
2023-05-17T00:06:46.845Z,82.40
2023-05-17T00:09:14.996Z,82.30
2023-05-17T00:11:43.153Z,82.30
2023-05-17T00:14:11.676Z,82.40
2023-05-17T00:16:39.981Z,82.60
2023-05-17T00:19:10.660Z,82.60
2023-05-17T00:21:39.241Z,82.60
2023-05-17T00:24:07.949Z,82.60
2023-05-17T00:26:36.704Z,82.70
2023-05-17T00:29:04.944Z,82.80
2023-05-17T00:31:33.143Z,82.80
2023-05-17T00:34:01.420Z,82.90
2023-05-17T00:36:31.144Z,82.90
2023-05-17T00:38:59.224Z,82.80
2023-05-17T00:41:27.580Z,82.80
2023-05-17T00:43:56.285Z,82.90
2023-05-17T00:46:26.798Z,82.90
2023-05-17T00:49:00.409Z,82.90
2023-05-17T00:51:31.786Z,82.90
2023-05-17T00:56:52.213Z,82.90
2023-05-17T00:59:26.651Z,82.90
2023-05-17T01:01:57.963Z,83.00
2023-05-17T01:04:28.448Z,82.80
2023-05-17T01:06:58.384Z,83.00
2023-05-17T01:09:26.782Z,83.00
2023-05-17T01:12:08.523Z,82.90
2023-05-17T01:14:52.623Z,83.20
2023-05-17T01:20:30.914Z,83.30
2023-05-17T01:23:45.376Z,83.20
2023-05-17T01:29:11.868Z,83.20
2023-05-17T01:31:42.946Z,83.30
2023-05-17T01:34:14.434Z,83.30
2023-05-17T01:36:58.586Z,83.30
2023-05-17T01:39:28.412Z,83.30
2023-05-17T01:42:03.729Z,83.30
2023-05-17T01:44:42.470Z,83.40
2023-05-17T01:47:18.560Z,83.30
2023-05-17T01:49:50.901Z,83.40
2023-05-17T01:52:31.956Z,83.30
2023-05-17T01:55:17.465Z,83.40
2023-05-17T02:00:56.523Z,83.40
2023-05-17T02:06:12.068Z,83.40
2023-05-17T02:08:42.830Z,83.30
2023-05-17T02:11:21.005Z,83.30
2023-05-17T02:13:51.641Z,83.30
2023-05-17T02:16:36.246Z,83.40
2023-05-17T02:19:07.739Z,83.40
2023-05-17T02:21:37.535Z,83.30
2023-05-17T02:24:06.636Z,83.40
2023-05-17T02:26:42.451Z,83.40
2023-05-17T02:29:12.219Z,83.40
2023-05-17T02:31:42.244Z,83.50
2023-05-17T02:34:11.598Z,83.50
2023-05-17T02:36:41.777Z,83.50
2023-05-17T02:39:18.506Z,83.50
2023-05-17T02:42:01.799Z,83.50
2023-05-17T02:44:32.258Z,83.40
2023-05-17T02:47:04.317Z,83.30
2023-05-17T02:49:35.063Z,83.30
2023-05-17T02:52:06.339Z,83.50
2023-05-17T02:54:37.101Z,83.40
2023-05-17T02:57:22.800Z,83.50
2023-05-17T02:59:51.895Z,83.50
2023-05-17T03:02:37.011Z,83.50
2023-05-17T03:05:06.081Z,83.60
2023-05-17T03:07:36.809Z,83.50
2023-05-17T03:10:14.008Z,83.60
2023-05-17T03:12:45.479Z,83.60
2023-05-17T03:15:14.873Z,83.60
2023-05-17T03:17:46.815Z,83.70
2023-05-17T03:20:17.528Z,83.60
2023-05-17T03:22:51.614Z,83.70
2023-05-17T03:25:23.386Z,83.70
2023-05-17T03:28:16.564Z,83.70
2023-05-17T03:30:45.073Z,83.70
2023-05-17T03:33:17.450Z,83.70
2023-05-17T03:38:31.635Z,83.70
2023-05-17T03:41:01.245Z,83.70
2023-05-17T03:43:33.678Z,83.70
2023-05-17T03:46:04.424Z,83.70
2023-05-17T03:48:49.906Z,83.60
2023-05-17T03:54:02.126Z,83.30
2023-05-17T03:56:32.696Z,83.40
2023-05-17T03:59:01.856Z,83.50
2023-05-17T04:01:31.794Z,83.60
2023-05-17T04:04:07.538Z,83.50
2023-05-17T04:06:35.961Z,83.30
2023-05-17T04:09:10.787Z,83.40
2023-05-17T04:11:40.861Z,83.20
2023-05-17T04:14:11.550Z,83.10
2023-05-17T04:16:48.772Z,83.10
2023-05-17T04:22:06.326Z,82.80
2023-05-17T04:24:46.915Z,82.80
2023-05-17T04:27:16.352Z,82.80
2023-05-17T04:29:46.852Z,82.70
2023-05-17T04:32:18.941Z,82.60
2023-05-17T04:34:52.656Z,82.50
2023-05-17T04:37:23.536Z,82.30
2023-05-17T04:42:37.642Z,82.20
2023-05-17T04:45:07.707Z,82.10
2023-05-17T04:47:41.328Z,82.10
2023-05-17T04:50:11.781Z,81.80
2023-05-17T04:52:43.344Z,81.70
2023-05-17T04:57:58.996Z,81.70
2023-05-17T05:00:27.257Z,81.70
2023-05-17T05:02:59.200Z,81.50
2023-05-17T05:05:29.035Z,81.60
2023-05-17T05:08:06.374Z,81.50
2023-05-17T05:10:36.804Z,81.40
2023-05-17T05:13:04.957Z,81.00
2023-05-17T05:15:36.965Z,80.80
2023-05-17T05:18:11.542Z,80.70
2023-05-17T05:20:45.360Z,80.50
2023-05-17T05:23:13.569Z,80.20
2023-05-17T05:25:45.787Z,80.10
2023-05-17T05:28:26.312Z,79.70
2023-05-17T05:31:01.966Z,79.70
2023-05-17T05:33:36.704Z,78.90
2023-05-17T05:36:12.434Z,78.50
2023-05-17T05:38:42.877Z,78.10
2023-05-17T05:41:12.465Z,77.80
2023-05-17T05:43:47.038Z,77.50
2023-05-17T05:46:17.828Z,77.20
2023-05-17T05:48:46.067Z,77.00
2023-05-17T05:51:34.810Z,76.30
2023-05-17T05:54:05.910Z,75.90
2023-05-17T05:56:36.423Z,75.90
2023-05-17T06:01:47.870Z,75.20
2023-05-17T06:07:19.884Z,74.30
2023-05-17T06:09:56.812Z,74.00
2023-05-17T06:12:27.269Z,73.60
2023-05-17T06:15:00.529Z,73.60
2023-05-17T06:17:34.552Z,73.00
2023-05-17T06:20:06.813Z,72.60
2023-05-17T06:22:44.572Z,72.40
2023-05-17T06:25:16.525Z,72.20
2023-05-17T06:27:47.693Z,71.90
2023-05-17T06:33:04.981Z,71.50
2023-05-17T06:35:54.632Z,71.10
2023-05-17T06:38:29.403Z,70.20
2023-05-17T06:43:51.624Z,69.00
2023-05-17T06:46:21.341Z,68.60
2023-05-17T06:48:51.172Z,68.20
2023-05-17T06:51:20.876Z,68.30
2023-05-17T06:53:53.008Z,68.10
2023-05-17T06:59:07.819Z,67.10
2023-05-17T07:01:36.547Z,67.20
2023-05-17T07:04:06.609Z,66.60
2023-05-17T07:09:35.914Z,66.00
2023-05-17T07:12:17.096Z,65.80
2023-05-17T07:14:51.257Z,65.80
2023-05-17T07:17:23.386Z,65.30
2023-05-17T07:19:55.414Z,65.00
2023-05-17T07:22:23.674Z,64.70
2023-05-17T07:25:03.301Z,64.10
2023-05-17T07:27:32.733Z,64.50
2023-05-17T07:30:16.641Z,63.80
2023-05-17T07:32:47.493Z,63.50
2023-05-17T07:35:23.520Z,62.70
2023-05-17T07:38:02.712Z,62.80
2023-05-17T07:40:50.611Z,62.30
2023-05-17T07:43:19.225Z,61.90
2023-05-17T07:46:01.681Z,61.20
2023-05-17T07:48:36.280Z,61.10
2023-05-17T07:51:06.966Z,60.50
2023-05-17T07:53:37.263Z,60.20
2023-05-17T07:56:16.717Z,59.10
2023-05-17T07:58:45.002Z,59.80
2023-05-17T08:01:13.144Z,57.80
2023-05-17T08:03:48.144Z,58.90
2023-05-17T08:06:16.909Z,58.90
2023-05-17T08:08:45.772Z,58.60
2023-05-17T08:11:15.534Z,58.80
2023-05-17T08:13:44.385Z,58.30
2023-05-17T08:16:14.628Z,57.50
2023-05-17T08:18:46.362Z,57.90
2023-05-17T08:21:14.680Z,56.00
2023-05-17T08:23:42.889Z,57.20
2023-05-17T08:26:13.039Z,57.30
2023-05-17T08:28:42.594Z,56.80
2023-05-17T08:31:11.705Z,56.60
2023-05-17T08:33:39.862Z,56.20
2023-05-17T08:36:09.184Z,56.30
2023-05-17T08:38:37.410Z,55.90
2023-05-17T08:41:08.253Z,55.40
2023-05-17T08:46:25.172Z,55.00
2023-05-17T08:48:56.596Z,54.90
2023-05-17T08:51:30.932Z,54.80
2023-05-17T08:54:02.366Z,55.00
2023-05-17T08:56:36.208Z,54.50
2023-05-17T08:59:12.066Z,54.10
2023-05-17T09:01:44.814Z,54.10
2023-05-17T09:04:13.249Z,54.40
2023-05-17T09:06:41.402Z,53.50
2023-05-17T09:09:09.625Z,52.80
2023-05-17T09:11:37.884Z,53.50
2023-05-17T09:14:07.994Z,53.00
2023-05-17T09:16:38.671Z,53.20
2023-05-17T09:19:09.889Z,52.90
2023-05-17T09:21:38.648Z,52.80
2023-05-17T09:24:08.544Z,52.70
2023-05-17T09:26:41.712Z,52.70
2023-05-17T09:29:11.693Z,52.40
2023-05-17T09:31:40.916Z,52.10
2023-05-17T09:34:11.128Z,52.00
2023-05-17T09:36:43.522Z,52.00
2023-05-17T09:39:14.735Z,51.80
2023-05-17T09:41:46.569Z,51.20
2023-05-17T09:44:15.898Z,51.30
2023-05-17T09:46:45.837Z,50.80
2023-05-17T09:49:16.157Z,50.70
2023-05-17T09:51:45.642Z,50.60
2023-05-17T09:54:14.380Z,50.60
2023-05-17T09:56:43.296Z,50.50
2023-05-17T09:59:16.238Z,50.40
2023-05-17T10:01:46.516Z,50.60
2023-05-17T10:04:20.662Z,50.30
2023-05-17T10:06:52.699Z,49.90
2023-05-17T10:09:23.675Z,49.70
2023-05-17T10:11:56.647Z,50.20
2023-05-17T10:14:31.948Z,49.50
2023-05-17T10:17:01.841Z,49.30
2023-05-17T10:19:31.886Z,49.50
2023-05-17T10:22:14.772Z,49.80
2023-05-17T10:24:49.880Z,48.80
2023-05-17T10:27:18.591Z,48.60
2023-05-17T10:29:50.146Z,48.30
2023-05-17T10:32:23.373Z,48.30
2023-05-17T10:35:09.560Z,48.20
2023-05-17T10:37:40.323Z,47.80
2023-05-17T10:40:13.520Z,48.20
2023-05-17T10:42:43.918Z,48.40
2023-05-17T10:45:13.832Z,48.20
2023-05-17T10:47:42.721Z,48.40
2023-05-17T10:50:15.114Z,47.80
2023-05-17T10:52:48.765Z,48.10
2023-05-17T10:55:20.808Z,47.70
2023-05-17T10:58:16.084Z,47.10
2023-05-17T11:00:47.162Z,47.10
2023-05-17T11:03:20.207Z,46.60
2023-05-17T11:06:24.605Z,47.00
2023-05-17T11:09:15.364Z,46.30
2023-05-17T11:12:10.629Z,46.20
2023-05-17T11:14:49.790Z,46.10
2023-05-17T11:17:19.449Z,45.70
2023-05-17T11:19:56.396Z,45.20
2023-05-17T11:22:26.812Z,45.10
2023-05-17T11:24:57.950Z,44.90
2023-05-17T11:27:28.917Z,44.10
2023-05-17T11:29:58.895Z,44.20
2023-05-17T11:32:30.744Z,44.40
2023-05-17T11:35:01.759Z,43.80
2023-05-17T11:37:32.013Z,44.30
2023-05-17T11:40:05.882Z,43.70
2023-05-17T11:42:34.244Z,43.30
2023-05-17T11:45:03.049Z,43.50
2023-05-17T11:47:31.460Z,42.90
2023-05-17T11:50:03.111Z,42.20
2023-05-17T11:52:33.737Z,43.00
2023-05-17T11:55:02.645Z,42.60
2023-05-17T11:57:32.025Z,42.90
2023-05-17T12:00:01.476Z,42.80
2023-05-17T12:02:30.996Z,43.40
2023-05-17T12:04:59.662Z,43.00
2023-05-17T12:07:28.927Z,43.20
2023-05-17T12:09:58.513Z,43.40
2023-05-17T12:12:27.264Z,43.10
2023-05-17T12:14:55.529Z,43.20
2023-05-17T12:17:30.591Z,42.90
2023-05-17T12:20:08.420Z,42.80
2023-05-17T12:22:52.221Z,42.50
2023-05-17T12:25:23.649Z,42.60
2023-05-17T12:27:51.950Z,42.10
2023-05-17T12:30:20.839Z,41.70
2023-05-17T12:32:49.253Z,41.60
2023-05-17T12:35:17.672Z,41.80
2023-05-17T12:37:46.112Z,42.10
2023-05-17T12:40:14.662Z,42.30
2023-05-17T12:42:44.236Z,42.30
2023-05-17T12:45:15.611Z,41.90
2023-05-17T12:47:44.857Z,41.30
2023-05-17T12:50:13.264Z,41.80
2023-05-17T12:52:42.277Z,41.60
2023-05-17T12:55:14.969Z,41.40
2023-05-17T12:57:51.913Z,40.50
2023-05-17T13:00:20.967Z,40.40
2023-05-17T13:02:49.573Z,40.80
2023-05-17T13:05:21.497Z,41.30
2023-05-17T13:07:49.772Z,41.70
2023-05-17T13:10:26.194Z,42.30
2023-05-17T13:13:01.036Z,42.40
2023-05-17T13:15:33.787Z,41.90
2023-05-17T13:18:13.401Z,42.20
2023-05-17T13:20:50.469Z,41.80
2023-05-17T13:23:23.399Z,41.30
2023-05-17T13:25:54.398Z,41.50
2023-05-17T13:28:28.234Z,41.60
2023-05-17T13:30:56.671Z,41.40
2023-05-17T13:33:28.058Z,41.70
2023-05-17T13:38:43.328Z,41.50
2023-05-17T13:41:12.618Z,42.00
2023-05-17T13:43:42.192Z,41.40
2023-05-17T13:46:11.054Z,40.50
2023-05-17T13:48:41.853Z,40.80
2023-05-17T13:51:10.891Z,40.40
2023-05-17T13:53:39.607Z,41.00
2023-05-17T13:56:08.726Z,41.10
2023-05-17T13:58:36.848Z,40.90
2023-05-17T14:01:06.823Z,41.00
2023-05-17T14:03:36.275Z,40.70
2023-05-17T14:06:06.493Z,40.30
2023-05-17T14:08:35.334Z,39.40
2023-05-17T14:11:03.501Z,39.20
2023-05-17T14:13:31.894Z,38.80
2023-05-17T14:16:00.094Z,38.80
2023-05-17T14:18:31.550Z,40.20
2023-05-17T14:21:01.116Z,40.20
2023-05-17T14:23:29.413Z,40.30
2023-05-17T14:25:57.788Z,39.90
2023-05-17T14:28:26.045Z,40.10
2023-05-17T14:30:54.169Z,40.30
2023-05-17T14:33:22.371Z,40.00
2023-05-17T14:35:52.189Z,39.60
2023-05-17T14:38:20.871Z,39.10
2023-05-17T14:40:54.862Z,38.80
2023-05-17T14:43:23.434Z,38.40
2023-05-17T14:45:52.283Z,38.40
2023-05-17T14:48:22.943Z,38.40
2023-05-17T14:50:53.419Z,38.70
2023-05-17T14:53:21.720Z,38.80
2023-05-17T14:55:49.861Z,39.70
2023-05-17T14:58:18.013Z,40.40
2023-05-17T15:00:48.492Z,40.30
2023-05-17T15:03:21.964Z,39.80
2023-05-17T15:05:56.588Z,39.80
2023-05-17T15:08:25.020Z,39.30
2023-05-17T15:10:54.258Z,39.10
2023-05-17T15:13:22.594Z,38.20
2023-05-17T15:15:52.248Z,37.60
2023-05-17T15:18:20.632Z,38.10
2023-05-17T15:20:48.796Z,37.80
2023-05-17T15:23:18.388Z,37.80
2023-05-17T15:25:46.574Z,37.80
2023-05-17T15:28:15.123Z,38.30
2023-05-17T15:30:43.345Z,38.40
2023-05-17T15:33:12.154Z,39.20
2023-05-17T15:35:43.134Z,39.00
2023-05-17T15:38:11.485Z,39.40
2023-05-17T15:40:41.000Z,39.90
2023-05-17T15:43:09.155Z,38.20
2023-05-17T15:45:37.290Z,37.60
2023-05-17T15:48:06.900Z,38.00
2023-05-17T15:50:35.185Z,38.40
2023-05-17T15:53:03.340Z,39.00
2023-05-17T15:55:31.735Z,38.50
2023-05-17T15:58:01.382Z,36.80
2023-05-17T16:00:29.574Z,36.40
2023-05-17T16:02:57.791Z,35.70
2023-05-17T16:05:25.981Z,35.00
2023-05-17T16:07:54.169Z,34.10
2023-05-17T16:10:22.406Z,33.40
2023-05-17T16:12:50.576Z,33.00
2023-05-17T16:15:20.401Z,32.20
2023-05-17T16:17:51.213Z,32.90
2023-05-17T16:20:21.888Z,34.60
2023-05-17T16:22:51.188Z,35.80
2023-05-17T16:25:20.273Z,36.40
2023-05-17T16:27:49.146Z,35.40
2023-05-17T16:30:19.393Z,36.20
2023-05-17T16:32:48.322Z,37.00
2023-05-17T16:35:18.388Z,37.50
2023-05-17T16:37:48.448Z,38.30
2023-05-17T16:40:16.997Z,35.10
2023-05-17T16:42:45.595Z,32.00
2023-05-17T16:45:13.851Z,31.40
2023-05-17T16:47:43.727Z,30.20
2023-05-17T16:50:13.580Z,30.70
2023-05-17T16:52:41.860Z,32.50
2023-05-17T16:55:11.378Z,33.70
2023-05-17T16:57:39.710Z,35.00
2023-05-17T17:00:11.376Z,35.60
2023-05-17T17:02:39.545Z,36.20
2023-05-17T17:05:10.446Z,36.80
2023-05-17T17:07:38.656Z,37.10
2023-05-17T17:10:07.784Z,37.40
2023-05-17T17:12:35.991Z,38.10
2023-05-17T17:15:07.492Z,38.40
2023-05-17T17:17:36.172Z,39.00
2023-05-17T17:20:05.687Z,39.40
2023-05-17T17:22:35.258Z,39.50
2023-05-17T17:25:03.514Z,39.70
2023-05-17T17:27:31.711Z,40.00
2023-05-17T17:30:00.025Z,40.40
2023-05-17T17:32:28.424Z,40.60
2023-05-17T17:34:56.598Z,40.90
2023-05-17T17:37:24.793Z,41.20
2023-05-17T17:39:54.289Z,41.40
2023-05-17T17:42:22.487Z,41.70
2023-05-17T17:44:50.840Z,41.70
2023-05-17T17:47:19.152Z,41.90
2023-05-17T17:49:47.361Z,42.00
2023-05-17T17:52:15.538Z,42.30
2023-05-17T17:54:45.884Z,42.60
2023-05-17T17:57:15.839Z,42.80
2023-05-17T17:59:44.045Z,43.10
2023-05-17T18:02:12.200Z,43.20
2023-05-17T18:04:40.742Z,43.60
2023-05-17T18:07:09.135Z,44.00
2023-05-17T18:09:37.330Z,44.10
2023-05-17T18:12:05.893Z,44.40
2023-05-17T18:14:35.693Z,44.70
2023-05-17T18:17:04.057Z,44.80
2023-05-17T18:19:32.464Z,45.20
2023-05-17T18:22:00.711Z,45.40
2023-05-17T18:24:28.918Z,45.60
2023-05-17T18:26:57.276Z,45.90
2023-05-17T18:29:25.581Z,46.10
2023-05-17T18:31:55.464Z,46.20
2023-05-17T18:34:25.327Z,46.40
2023-05-17T18:36:53.469Z,46.70
2023-05-17T18:39:21.713Z,46.90
2023-05-17T18:41:49.825Z,47.20
2023-05-17T18:44:19.912Z,47.20
2023-05-17T18:46:48.712Z,47.30
2023-05-17T18:49:18.378Z,47.40
2023-05-17T18:51:46.618Z,47.60
2023-05-17T18:54:15.043Z,47.90
2023-05-17T18:56:43.265Z,48.20
2023-05-17T18:59:11.394Z,48.40
2023-05-17T19:01:39.752Z,48.50
2023-05-17T19:04:08.072Z,48.70
2023-05-17T19:06:41.359Z,49.00
2023-05-17T19:09:09.701Z,49.20
2023-05-17T19:11:37.877Z,49.30
2023-05-17T19:14:06.334Z,49.60
2023-05-17T19:16:34.865Z,49.70
2023-05-17T19:19:03.099Z,50.00
2023-05-17T19:21:31.259Z,50.10
2023-05-17T19:24:01.453Z,50.40
2023-05-17T19:26:29.625Z,50.40
2023-05-17T19:28:57.852Z,50.60
2023-05-17T19:31:26.065Z,50.80
2023-05-17T19:33:54.275Z,51.00
2023-05-17T19:36:22.522Z,51.10
2023-05-17T19:38:51.951Z,51.30
2023-05-17T19:41:22.032Z,51.40
2023-05-17T19:43:50.175Z,51.60
2023-05-17T19:46:18.353Z,51.80
2023-05-17T19:48:46.821Z,51.90
2023-05-17T19:51:15.014Z,52.10
2023-05-17T19:53:52.720Z,52.30
2023-05-17T19:56:24.992Z,52.50
2023-05-17T19:58:54.118Z,52.70
2023-05-17T20:01:23.119Z,52.90
2023-05-17T20:03:52.701Z,53.00
2023-05-17T20:06:22.677Z,53.30
2023-05-17T20:08:53.164Z,53.50
2023-05-17T20:11:42.622Z,53.70
2023-05-17T20:14:13.306Z,53.90
2023-05-17T20:16:42.066Z,54.10
2023-05-17T20:19:10.273Z,54.30
2023-05-17T20:21:38.527Z,54.50
2023-05-17T20:24:07.391Z,54.70
2023-05-17T20:26:37.259Z,54.90
2023-05-17T20:29:08.194Z,55.20
2023-05-17T20:31:52.202Z,55.30
2023-05-17T20:34:27.943Z,55.60
2023-05-17T20:37:12.248Z,55.90
2023-05-17T20:39:41.947Z,56.00
2023-05-17T20:42:19.884Z,56.10
2023-05-17T20:44:53.857Z,56.20
2023-05-17T20:47:27.299Z,56.30
2023-05-17T20:50:04.494Z,56.30
2023-05-17T20:52:39.595Z,56.50
2023-05-17T20:55:12.611Z,56.70
2023-05-17T21:00:28.587Z,57.10
2023-05-17T21:02:57.274Z,57.40
2023-05-17T21:05:25.768Z,57.50
2023-05-17T21:07:56.349Z,57.80
2023-05-17T21:10:24.545Z,57.70
2023-05-17T21:12:52.933Z,57.80
2023-05-17T21:15:21.202Z,57.90
2023-05-17T21:17:50.790Z,57.90
2023-05-17T21:20:20.034Z,58.00
2023-05-17T21:22:49.587Z,58.00
2023-05-17T21:25:18.212Z,58.10
2023-05-17T21:27:46.504Z,58.00
2023-05-17T21:30:14.875Z,58.00
2023-05-17T21:32:43.265Z,58.00
2023-05-17T21:35:12.953Z,58.00
2023-05-17T21:37:42.021Z,58.10
2023-05-17T21:40:11.272Z,58.20
2023-05-17T21:42:39.474Z,58.30
2023-05-17T21:45:08.977Z,58.40
2023-05-17T21:47:37.197Z,58.50
2023-05-17T21:50:05.986Z,58.60
2023-05-17T21:52:35.766Z,58.60
2023-05-17T21:55:04.044Z,58.60
2023-05-17T21:57:36.147Z,58.70
2023-05-17T22:00:05.856Z,58.80
2023-05-17T22:02:35.208Z,58.90
2023-05-17T22:05:03.576Z,59.30
2023-05-17T22:07:31.801Z,59.20
2023-05-17T22:10:02.393Z,59.30
2023-05-17T22:12:30.554Z,59.50
2023-05-17T22:14:58.986Z,59.90
2023-05-17T22:17:35.281Z,60.10
2023-05-17T22:20:11.952Z,60.30
2023-05-17T22:22:40.229Z,60.50
2023-05-17T22:25:10.965Z,60.60
2023-05-17T22:27:39.139Z,60.80
2023-05-17T22:30:09.031Z,61.00
2023-05-17T22:32:38.383Z,61.20
2023-05-17T22:35:07.121Z,61.30
2023-05-17T22:37:37.979Z,61.40
2023-05-17T22:40:08.196Z,61.50
2023-05-17T22:42:37.754Z,61.60
2023-05-17T22:45:06.495Z,61.70
2023-05-17T22:47:35.289Z,61.80
2023-05-17T22:50:03.514Z,61.80
2023-05-17T22:52:31.675Z,62.00
2023-05-17T22:54:59.867Z,62.10
2023-05-17T22:57:28.099Z,62.20
2023-05-17T22:59:57.638Z,62.40
2023-05-17T23:02:25.873Z,62.50
2023-05-17T23:04:54.120Z,62.80
2023-05-17T23:07:23.355Z,62.90
2023-05-17T23:09:53.797Z,63.00
2023-05-17T23:12:21.960Z,63.50
2023-05-17T23:14:50.071Z,63.60
2023-05-17T23:17:19.616Z,63.60
2023-05-17T23:19:47.732Z,63.90
2023-05-17T23:22:16.678Z,64.10
2023-05-17T23:24:46.597Z,64.20
2023-05-17T23:27:15.376Z,64.30
2023-05-17T23:29:43.514Z,64.50
2023-05-17T23:32:11.668Z,64.70
2023-05-17T23:34:42.826Z,64.80
2023-05-17T23:37:11.005Z,65.00
2023-05-17T23:39:39.151Z,65.10
2023-05-17T23:42:10.224Z,65.20
2023-05-17T23:44:41.997Z,65.20
2023-05-17T23:47:12.411Z,65.40
2023-05-17T23:49:42.259Z,65.60
2023-05-17T23:52:11.058Z,65.70
2023-05-17T23:54:39.813Z,65.90
2023-05-17T23:57:09.008Z,65.80
2023-05-17T23:59:37.531Z,66.10
